createdAt,value
2023-03-03T00:01:55.371Z,3.37
2023-03-03T00:04:23.331Z,3.39
2023-03-03T00:06:52.204Z,3.42
2023-03-03T00:09:20.131Z,3.44
2023-03-03T00:11:50.676Z,3.47
2023-03-03T00:14:24.480Z,3.47
2023-03-03T00:16:52.794Z,3.48
2023-03-03T00:19:21.147Z,3.47
2023-03-03T00:21:50.052Z,3.48
2023-03-03T00:24:21.144Z,3.51
2023-03-03T00:26:56.629Z,3.57
2023-03-03T00:29:27.490Z,3.64
2023-03-03T00:31:55.948Z,3.72
2023-03-03T00:34:28.213Z,3.75
2023-03-03T00:36:57.689Z,3.75
2023-03-03T00:39:38.564Z,3.78
2023-03-03T00:42:14.289Z,3.82
2023-03-03T00:44:43.107Z,3.86
2023-03-03T00:47:31.795Z,3.88
2023-03-03T00:50:07.189Z,3.91
2023-03-03T00:52:41.689Z,3.92
2023-03-03T00:55:10.834Z,3.93
2023-03-03T00:57:41.277Z,3.95
2023-03-03T01:00:10.745Z,3.96
2023-03-03T01:02:39.611Z,3.96
2023-03-03T01:05:08.235Z,3.97
2023-03-03T01:07:36.347Z,3.98
2023-03-03T01:10:04.910Z,3.97
2023-03-03T01:12:33.378Z,3.96
2023-03-03T01:15:01.414Z,3.94
2023-03-03T01:17:34.395Z,3.92
2023-03-03T01:20:02.933Z,3.93
2023-03-03T01:22:31.141Z,3.96
2023-03-03T01:25:00.324Z,3.97
2023-03-03T01:27:28.784Z,3.97
2023-03-03T01:29:57.636Z,3.97
2023-03-03T01:32:25.912Z,3.97
2023-03-03T01:34:57.575Z,3.97
2023-03-03T01:37:26.665Z,3.97
2023-03-03T01:39:54.847Z,3.98
2023-03-03T01:42:23.701Z,3.97
2023-03-03T01:45:15.134Z,3.94
2023-03-03T01:47:47.273Z,3.89
2023-03-03T01:50:21.118Z,3.83
2023-03-03T01:52:54.778Z,3.78
2023-03-03T01:55:25.148Z,3.72
2023-03-03T01:57:59.804Z,3.67
2023-03-03T02:00:28.520Z,3.64
2023-03-03T02:02:57.010Z,3.65
2023-03-03T02:05:25.324Z,3.67
2023-03-03T02:07:53.243Z,3.66
2023-03-03T02:10:22.472Z,3.67
2023-03-03T02:12:52.900Z,3.69
2023-03-03T02:15:27.567Z,3.70
2023-03-03T02:17:56.905Z,3.73
2023-03-03T02:20:24.960Z,3.78
2023-03-03T02:23:21.221Z,3.82
2023-03-03T02:26:07.438Z,3.79
2023-03-03T02:28:36.955Z,3.78
2023-03-03T02:31:11.005Z,3.76
2023-03-03T02:33:41.054Z,3.72
2023-03-03T02:36:16.469Z,3.67
2023-03-03T02:38:52.233Z,3.67
2023-03-03T02:41:23.385Z,3.70
2023-03-03T02:43:53.798Z,3.73
2023-03-03T02:46:22.298Z,3.75
2023-03-03T02:48:50.551Z,3.72
2023-03-03T02:51:18.749Z,3.68
2023-03-03T02:53:46.898Z,3.69
2023-03-03T02:56:15.014Z,3.69
2023-03-03T02:58:43.416Z,3.66
2023-03-03T03:01:11.934Z,3.62
2023-03-03T03:03:41.500Z,3.61
2023-03-03T03:06:10.884Z,3.60
2023-03-03T03:08:41.013Z,3.60
2023-03-03T03:11:09.207Z,3.57
2023-03-03T03:13:38.185Z,3.56
2023-03-03T03:16:08.256Z,3.56
2023-03-03T03:18:36.668Z,3.58
2023-03-03T03:21:09.547Z,3.58
2023-03-03T03:23:39.981Z,3.57
2023-03-03T03:26:10.198Z,3.54
2023-03-03T03:28:39.086Z,3.53
2023-03-03T03:31:08.307Z,3.53
2023-03-03T03:33:36.853Z,3.55
2023-03-03T03:36:06.492Z,3.57
2023-03-03T03:38:36.788Z,3.59
2023-03-03T03:41:08.862Z,3.62
2023-03-03T03:43:37.073Z,3.64
2023-03-03T03:46:05.321Z,3.66
2023-03-03T03:48:34.420Z,3.65
2023-03-03T03:51:03.107Z,3.63
2023-03-03T03:53:32.885Z,3.60
2023-03-03T03:56:01.456Z,3.57
2023-03-03T03:58:30.656Z,3.56
2023-03-03T04:01:05.869Z,3.58
2023-03-03T04:03:35.713Z,3.59
2023-03-03T04:06:05.757Z,3.61
2023-03-03T04:08:35.305Z,3.65
2023-03-03T04:11:03.926Z,3.70
2023-03-03T04:13:35.407Z,3.73
2023-03-03T04:16:05.398Z,3.74
2023-03-03T04:18:35.245Z,3.72
2023-03-03T04:21:06.225Z,3.69
2023-03-03T04:23:34.902Z,3.69
2023-03-03T04:26:03.346Z,3.67
2023-03-03T04:28:31.787Z,3.65
2023-03-03T04:31:00.717Z,3.67
2023-03-03T04:33:29.068Z,3.67
2023-03-03T04:35:57.785Z,3.67
2023-03-03T04:38:26.349Z,3.70
2023-03-03T04:40:56.773Z,3.73
2023-03-03T04:43:25.529Z,3.77
2023-03-03T04:45:55.126Z,3.78
2023-03-03T04:48:24.793Z,3.76
2023-03-03T04:50:53.277Z,3.76
2023-03-03T04:53:21.627Z,3.78
2023-03-03T04:55:52.164Z,3.80
2023-03-03T04:58:21.202Z,3.80
2023-03-03T05:00:56.639Z,3.79
2023-03-03T05:03:27.240Z,3.74
2023-03-03T05:05:55.635Z,3.73
2023-03-03T05:08:23.966Z,3.77
2023-03-03T05:10:53.537Z,3.84
2023-03-03T05:13:27.344Z,3.86
2023-03-03T05:15:56.257Z,3.81
2023-03-03T05:18:24.665Z,3.78
2023-03-03T05:20:52.800Z,3.76
2023-03-03T05:23:21.241Z,3.78
2023-03-03T05:25:50.014Z,3.81
2023-03-03T05:28:19.220Z,3.86
2023-03-03T05:30:47.410Z,3.90
2023-03-03T05:33:16.819Z,3.93
2023-03-03T05:35:45.885Z,3.95
2023-03-03T05:38:17.544Z,3.95
2023-03-03T05:40:45.907Z,3.95
2023-03-03T05:43:14.168Z,3.94
2023-03-03T05:45:42.204Z,3.91
2023-03-03T05:48:10.551Z,3.83
2023-03-03T05:50:39.746Z,3.77
2023-03-03T05:53:08.136Z,3.75
2023-03-03T05:55:37.290Z,3.75
2023-03-03T05:58:05.396Z,3.75
2023-03-03T06:00:34.728Z,3.75
2023-03-03T06:03:02.892Z,3.76
2023-03-03T06:05:32.046Z,3.81
2023-03-03T06:08:01.066Z,3.82
2023-03-03T06:10:29.414Z,3.83
2023-03-03T06:12:58.646Z,3.86
2023-03-03T06:15:26.613Z,3.86
2023-03-03T06:17:56.579Z,3.86
2023-03-03T06:20:25.416Z,3.84
2023-03-03T06:22:53.483Z,3.83
2023-03-03T06:25:21.459Z,3.81
2023-03-03T06:27:49.491Z,3.81
2023-03-03T06:30:19.029Z,3.82
2023-03-03T06:32:47.537Z,3.86
2023-03-03T06:35:15.684Z,3.88
2023-03-03T06:37:44.786Z,3.90
2023-03-03T06:40:13.769Z,3.90
2023-03-03T06:42:42.573Z,3.94
2023-03-03T06:45:11.449Z,3.97
2023-03-03T06:47:39.573Z,4.01
2023-03-03T06:50:11.334Z,4.05
2023-03-03T06:52:39.226Z,4.08
2023-03-03T06:55:17.726Z,4.10
2023-03-03T06:57:45.835Z,4.09
2023-03-03T07:00:30.791Z,4.08
2023-03-03T07:03:12.533Z,4.07
2023-03-03T07:05:45.085Z,4.09
2023-03-03T07:08:16.514Z,4.11
2023-03-03T07:10:45.152Z,4.14
2023-03-03T07:13:27.420Z,4.15
2023-03-03T07:15:56.875Z,4.17
2023-03-03T07:18:45.674Z,4.20
2023-03-03T07:21:14.075Z,4.20
2023-03-03T07:23:43.049Z,4.20
2023-03-03T07:26:34.574Z,4.21
2023-03-03T07:29:26.536Z,4.25
2023-03-03T07:31:56.558Z,4.27
2023-03-03T07:34:31.475Z,4.29
2023-03-03T07:37:35.591Z,4.30
2023-03-03T07:40:24.393Z,4.33
2023-03-03T07:42:52.402Z,4.36
2023-03-03T07:45:34.919Z,4.39
2023-03-03T07:48:26.539Z,4.42
2023-03-03T07:50:54.886Z,4.47
2023-03-03T07:53:30.263Z,4.54
2023-03-03T07:55:58.473Z,4.60
2023-03-03T07:58:40.089Z,4.65
2023-03-03T08:01:40.428Z,4.70
2023-03-03T08:04:14.067Z,4.77
2023-03-03T08:07:00.624Z,4.80
2023-03-03T08:09:44.198Z,4.83
2023-03-03T08:12:28.380Z,4.87
2023-03-03T08:14:57.593Z,4.94
2023-03-03T08:17:36.963Z,4.99
2023-03-03T08:20:53.361Z,5.04
2023-03-03T08:23:21.695Z,5.11
2023-03-03T08:25:50.748Z,5.15
2023-03-03T08:28:19.633Z,5.18
2023-03-03T08:30:48.559Z,5.21
2023-03-03T08:33:17.178Z,5.25
2023-03-03T08:35:45.725Z,5.28
2023-03-03T08:38:17.132Z,5.32
2023-03-03T08:40:45.514Z,5.35
2023-03-03T08:43:21.610Z,5.37
2023-03-03T08:45:50.206Z,5.40
2023-03-03T08:48:18.823Z,5.43
2023-03-03T08:50:47.943Z,5.46
2023-03-03T08:53:16.809Z,5.50
2023-03-03T08:55:45.490Z,5.52
2023-03-03T08:58:15.893Z,5.55
2023-03-03T09:00:51.237Z,5.57
2023-03-03T09:03:39.943Z,5.58
2023-03-03T09:06:10.047Z,5.61
2023-03-03T09:08:38.425Z,5.64
2023-03-03T09:11:17.122Z,5.66
2023-03-03T09:13:53.392Z,5.68
2023-03-03T09:16:22.505Z,5.70
2023-03-03T09:18:54.539Z,5.74
2023-03-03T09:21:27.005Z,5.78
2023-03-03T09:24:01.150Z,5.83
2023-03-03T09:26:39.366Z,5.87
2023-03-03T09:29:10.106Z,5.89
2023-03-03T09:31:59.108Z,5.92
2023-03-03T09:34:36.977Z,5.94
2023-03-03T09:37:36.681Z,5.96
2023-03-03T09:40:26.328Z,5.99
2023-03-03T09:43:10.233Z,5.99
2023-03-03T09:45:53.759Z,6.01
2023-03-03T09:48:53.071Z,6.02
2023-03-03T09:51:41.254Z,6.04
2023-03-03T09:54:16.284Z,6.06
2023-03-03T09:57:09.226Z,6.07
2023-03-03T10:00:00.430Z,6.09
2023-03-03T10:03:06.922Z,6.12
2023-03-03T10:05:54.040Z,6.13
2023-03-03T10:08:37.779Z,6.14
2023-03-03T10:11:10.923Z,6.17
2023-03-03T10:13:59.317Z,6.20
2023-03-03T10:16:56.585Z,6.23
2023-03-03T10:19:34.322Z,6.24
2023-03-03T10:22:29.611Z,6.27
2023-03-03T10:25:05.137Z,6.29
2023-03-03T10:28:02.844Z,6.30
2023-03-03T10:30:48.585Z,6.30
2023-03-03T10:33:35.680Z,6.32
2023-03-03T10:36:22.416Z,6.31
2023-03-03T10:39:19.594Z,6.33
2023-03-03T10:42:29.323Z,6.34
2023-03-03T10:45:13.045Z,6.34
2023-03-03T10:47:50.182Z,6.34
2023-03-03T10:50:27.150Z,6.36
2023-03-03T10:53:23.489Z,6.38
2023-03-03T10:56:04.482Z,6.38
2023-03-03T10:58:54.486Z,6.39
2023-03-03T11:01:45.537Z,6.40
2023-03-03T11:04:24.376Z,6.42
2023-03-03T11:07:13.828Z,6.42
2023-03-03T11:10:01.861Z,6.40
2023-03-03T11:12:39.879Z,6.23
2023-03-03T11:15:35.301Z,6.10
2023-03-03T11:18:14.018Z,5.97
2023-03-03T11:20:46.802Z,5.87
2023-03-03T11:23:53.683Z,5.76
2023-03-03T11:26:33.576Z,5.65
2023-03-03T11:29:40.729Z,5.64
2023-03-03T11:32:41.879Z,5.59
2023-03-03T11:35:19.855Z,5.48
2023-03-03T11:38:03.696Z,5.41
2023-03-03T11:40:50.542Z,5.30
2023-03-03T11:43:37.372Z,5.30
2023-03-03T11:46:20.716Z,5.32
2023-03-03T11:49:14.458Z,5.35
2023-03-03T11:52:12.651Z,5.43
2023-03-03T11:54:51.843Z,5.47
2023-03-03T11:57:30.055Z,5.54
2023-03-03T12:00:03.441Z,5.62
2023-03-03T12:02:57.905Z,5.71
2023-03-03T12:05:44.520Z,5.79
2023-03-03T12:08:12.737Z,5.87
2023-03-03T12:11:08.412Z,5.93
2023-03-03T12:14:17.171Z,6.01
2023-03-03T12:17:33.362Z,6.07
2023-03-03T12:20:07.395Z,6.12
2023-03-03T12:22:41.750Z,6.16
2023-03-03T12:25:14.967Z,6.19
2023-03-03T12:27:43.260Z,6.21
2023-03-03T12:30:26.826Z,6.22
2023-03-03T12:36:12.804Z,6.21
2023-03-03T12:39:13.465Z,6.21
2023-03-03T12:42:10.808Z,6.17
2023-03-03T12:44:48.913Z,6.14
2023-03-03T12:47:33.551Z,6.12
2023-03-03T12:50:08.140Z,6.13
2023-03-03T12:52:48.013Z,6.16
2023-03-03T12:55:44.615Z,6.16
2023-03-03T12:58:37.240Z,6.17
2023-03-03T13:01:28.261Z,6.19
2023-03-03T13:04:11.777Z,6.22
2023-03-03T13:06:55.220Z,6.25
2023-03-03T13:10:03.791Z,6.27
2023-03-03T13:12:47.297Z,6.29
2023-03-03T13:15:31.751Z,6.28
2023-03-03T13:18:00.498Z,6.28
2023-03-03T13:20:59.388Z,6.27
2023-03-03T13:23:32.121Z,6.26
2023-03-03T13:26:27.725Z,6.23
2023-03-03T13:29:20.217Z,6.19
2023-03-03T13:31:56.455Z,6.13
2023-03-03T13:34:30.860Z,6.11
2023-03-03T13:37:14.460Z,6.10
2023-03-03T13:40:00.507Z,6.10
2023-03-03T13:42:32.158Z,6.10
2023-03-03T13:45:00.593Z,6.11
2023-03-03T13:47:41.101Z,6.10
2023-03-03T13:50:38.570Z,6.07
2023-03-03T13:53:18.777Z,6.04
2023-03-03T13:56:23.856Z,6.05
2023-03-03T13:59:15.504Z,6.04
2023-03-03T14:02:01.798Z,6.03
2023-03-03T14:04:52.056Z,6.02
2023-03-03T14:08:07.513Z,6.02
2023-03-03T14:11:05.305Z,6.01
2023-03-03T14:13:53.553Z,6.03
2023-03-03T14:16:32.984Z,6.06
2023-03-03T14:19:09.919Z,6.10
2023-03-03T14:22:00.293Z,6.13
2023-03-03T14:24:30.389Z,6.16
2023-03-03T14:27:01.809Z,6.18
2023-03-03T14:29:32.514Z,6.21
2023-03-03T14:32:01.775Z,6.23
2023-03-03T14:34:39.496Z,6.25
2023-03-03T14:37:29.708Z,6.26
2023-03-03T14:40:07.189Z,6.26
2023-03-03T14:42:48.381Z,6.24
2023-03-03T14:45:37.444Z,6.24
2023-03-03T14:48:22.821Z,6.19
2023-03-03T14:50:56.668Z,6.10
2023-03-03T14:53:34.437Z,6.07
2023-03-03T14:56:16.203Z,6.05
2023-03-03T14:58:44.624Z,6.05
2023-03-03T15:01:13.016Z,6.02
2023-03-03T15:03:49.303Z,5.98
2023-03-03T15:06:42.086Z,5.95
2023-03-03T15:09:30.036Z,5.90
2023-03-03T15:11:59.638Z,5.90
2023-03-03T15:14:32.524Z,5.88
2023-03-03T15:17:19.512Z,5.79
2023-03-03T15:20:17.100Z,5.73
2023-03-03T15:23:14.621Z,5.67
2023-03-03T15:25:54.599Z,5.59
2023-03-03T15:28:29.848Z,5.49
2023-03-03T15:31:18.032Z,5.42
2023-03-03T15:34:23.149Z,5.42
2023-03-03T15:37:16.411Z,5.46
2023-03-03T15:40:21.832Z,5.53
2023-03-03T15:43:02.480Z,5.58
2023-03-03T15:45:47.992Z,5.60
2023-03-03T15:48:19.207Z,5.63
2023-03-03T15:51:16.247Z,5.61
2023-03-03T15:53:53.260Z,5.62
2023-03-03T15:56:49.774Z,5.55
2023-03-03T15:59:36.093Z,5.51
2023-03-03T16:02:46.615Z,5.48
2023-03-03T16:05:17.140Z,5.47
2023-03-03T16:08:13.893Z,5.51
2023-03-03T16:10:57.435Z,5.56
2023-03-03T16:13:45.628Z,5.61
2023-03-03T16:16:43.723Z,5.69
2023-03-03T16:19:22.175Z,5.76
2023-03-03T16:21:52.857Z,5.81
2023-03-03T16:24:29.082Z,5.85
2023-03-03T16:27:06.324Z,5.90
2023-03-03T16:29:57.900Z,5.94
2023-03-03T16:32:36.424Z,5.98
2023-03-03T16:35:24.378Z,6.00
2023-03-03T16:37:57.038Z,6.01
2023-03-03T16:40:45.617Z,6.01
2023-03-03T16:44:00.516Z,6.02
2023-03-03T16:46:35.947Z,6.01
2023-03-03T16:49:58.777Z,6.02
2023-03-03T16:52:33.190Z,6.03
2023-03-03T16:55:27.713Z,6.01
2023-03-03T16:58:04.960Z,5.96
2023-03-03T17:01:12.959Z,5.94
2023-03-03T17:03:47.288Z,5.95
2023-03-03T17:06:33.885Z,5.96
2023-03-03T17:09:32.055Z,5.98
2023-03-03T17:12:04.038Z,6.00
2023-03-03T17:14:39.159Z,6.00
2023-03-03T17:17:40.514Z,5.98
2023-03-03T17:20:26.875Z,5.98
2023-03-03T17:23:08.147Z,5.97
2023-03-03T17:26:13.244Z,5.97
2023-03-03T17:28:51.758Z,5.98
2023-03-03T17:31:38.106Z,5.96
2023-03-03T17:34:19.199Z,5.95
2023-03-03T17:37:08.838Z,5.95
2023-03-03T17:39:55.608Z,5.94
2023-03-03T17:43:05.004Z,5.94
2023-03-03T17:45:36.425Z,5.94
2023-03-03T17:48:42.929Z,5.87
2023-03-03T17:51:43.061Z,5.78
2023-03-03T17:54:20.456Z,5.77
2023-03-03T17:57:02.691Z,5.77
2023-03-03T17:59:41.522Z,5.75
2023-03-03T18:02:17.709Z,5.74
2023-03-03T18:05:14.115Z,5.76
2023-03-03T18:08:06.949Z,5.74
2023-03-03T18:11:08.368Z,5.75
2023-03-03T18:13:41.719Z,5.76
2023-03-03T18:16:24.567Z,5.74
2023-03-03T18:19:15.752Z,5.76
2023-03-03T18:21:53.339Z,5.77
2023-03-03T18:24:30.633Z,5.79
2023-03-03T18:27:33.725Z,5.78
2023-03-03T18:30:07.836Z,5.76
2023-03-03T18:33:03.466Z,5.73
2023-03-03T18:35:45.586Z,5.72
2023-03-03T18:38:16.525Z,5.71
2023-03-03T18:40:57.096Z,5.68
2023-03-03T18:43:43.572Z,5.62
2023-03-03T18:46:32.821Z,5.62
2023-03-03T18:49:02.253Z,5.59
2023-03-03T18:51:39.541Z,5.58
2023-03-03T18:54:17.319Z,5.59
2023-03-03T18:56:56.026Z,5.58
2023-03-03T18:59:35.429Z,5.52
2023-03-03T19:02:29.841Z,5.51
2023-03-03T19:05:23.489Z,5.48
2023-03-03T19:08:16.776Z,5.47
2023-03-03T19:10:55.586Z,5.36
2023-03-03T19:13:32.883Z,5.22
2023-03-03T19:16:06.400Z,5.14
2023-03-03T19:18:55.250Z,5.10
2023-03-03T19:21:33.999Z,5.06
2023-03-03T19:24:36.452Z,5.03
2023-03-03T19:27:49.275Z,4.94
2023-03-03T19:30:47.361Z,4.80
2023-03-03T19:33:23.180Z,4.74
2023-03-03T19:36:25.574Z,4.79
2023-03-03T19:39:25.159Z,4.85
2023-03-03T19:42:06.165Z,4.88
2023-03-03T19:45:12.235Z,4.91
2023-03-03T19:47:54.702Z,4.92
2023-03-03T19:50:33.133Z,4.90
2023-03-03T19:53:20.012Z,4.86
2023-03-03T19:56:09.826Z,4.82
2023-03-03T19:58:56.309Z,4.84
2023-03-03T20:01:24.779Z,4.83
2023-03-03T20:04:12.052Z,4.82
2023-03-03T20:06:54.867Z,4.80
2023-03-03T20:09:41.861Z,4.74
2023-03-03T20:12:32.697Z,4.67
2023-03-03T20:15:15.280Z,4.68
2023-03-03T20:18:01.901Z,4.69
2023-03-03T20:20:49.990Z,4.65
2023-03-03T20:23:36.805Z,4.64
2023-03-03T20:26:27.205Z,4.72
2023-03-03T20:29:15.914Z,4.80
2023-03-03T20:31:57.395Z,4.88
2023-03-03T20:34:46.876Z,4.91
2023-03-03T20:37:20.796Z,4.95
2023-03-03T20:40:13.205Z,4.97
2023-03-03T20:42:45.545Z,4.94
2023-03-03T20:45:42.099Z,4.90
2023-03-03T20:48:13.853Z,4.87
2023-03-03T20:50:55.573Z,4.88
2023-03-03T20:53:26.859Z,4.89
2023-03-03T20:56:03.472Z,4.86
2023-03-03T20:58:37.270Z,4.78
2023-03-03T21:01:16.407Z,4.71
2023-03-03T21:03:45.391Z,4.64
2023-03-03T21:06:18.312Z,4.62
2023-03-03T21:08:49.642Z,4.57
2023-03-03T21:11:22.624Z,4.62
2023-03-03T21:13:52.170Z,4.71
2023-03-03T21:16:20.215Z,4.75
2023-03-03T21:19:01.607Z,4.82
2023-03-03T21:21:38.167Z,4.91
2023-03-03T21:24:07.278Z,4.94
2023-03-03T21:26:48.860Z,4.84
2023-03-03T21:29:20.953Z,4.73
2023-03-03T21:31:59.451Z,4.59
2023-03-03T21:34:32.650Z,4.46
2023-03-03T21:37:07.100Z,4.38
2023-03-03T21:39:39.556Z,4.27
2023-03-03T21:42:10.565Z,4.19
2023-03-03T21:44:44.518Z,4.15
2023-03-03T21:47:15.134Z,4.14
2023-03-03T21:50:00.403Z,4.24
2023-03-03T21:52:29.164Z,4.34
2023-03-03T21:54:57.382Z,4.41
2023-03-03T21:57:26.751Z,4.48
2023-03-03T21:59:55.014Z,4.46
2023-03-03T22:02:22.947Z,4.41
2023-03-03T22:04:51.137Z,4.38
2023-03-03T22:07:19.232Z,4.37
2023-03-03T22:09:47.674Z,4.35
2023-03-03T22:12:16.107Z,4.30
2023-03-03T22:14:44.318Z,4.25
2023-03-03T22:17:12.330Z,4.18
2023-03-03T22:19:40.372Z,4.03
2023-03-03T22:22:09.300Z,3.86
2023-03-03T22:24:38.292Z,3.77
2023-03-03T22:27:07.695Z,3.75
2023-03-03T22:29:37.403Z,3.77
2023-03-03T22:32:05.686Z,3.83
2023-03-03T22:34:33.968Z,3.94
2023-03-03T22:37:02.028Z,4.03
2023-03-03T22:39:30.426Z,4.10
2023-03-03T22:41:58.586Z,4.15
2023-03-03T22:44:26.764Z,4.19
2023-03-03T22:46:54.876Z,4.22
2023-03-03T22:49:23.018Z,4.27
2023-03-03T22:51:51.013Z,4.29
2023-03-03T22:54:20.909Z,4.34
2023-03-03T22:56:48.951Z,4.41
2023-03-03T22:59:17.136Z,4.45
2023-03-03T23:01:47.982Z,4.48
2023-03-03T23:04:16.909Z,4.49
2023-03-03T23:06:47.843Z,4.48
2023-03-03T23:09:20.484Z,4.43
2023-03-03T23:11:49.786Z,4.37
2023-03-03T23:14:17.749Z,4.31
2023-03-03T23:16:47.336Z,4.22
2023-03-03T23:19:15.993Z,4.13
2023-03-03T23:21:44.308Z,4.08
2023-03-03T23:24:12.281Z,3.96
2023-03-03T23:26:40.349Z,3.84
2023-03-03T23:29:09.242Z,3.78
2023-03-03T23:31:41.312Z,3.75
2023-03-03T23:34:09.223Z,3.72
2023-03-03T23:36:37.353Z,3.66
2023-03-03T23:39:05.774Z,3.62
2023-03-03T23:41:34.393Z,3.67
2023-03-03T23:44:02.482Z,3.74
2023-03-03T23:46:34.261Z,3.78
2023-03-03T23:49:02.435Z,3.78
2023-03-03T23:51:31.249Z,3.83
2023-03-03T23:54:01.632Z,3.86
2023-03-03T23:56:29.809Z,3.83
2023-03-03T23:58:57.980Z,3.83
